createdAt,value
2019-06-10T00:04:31.420Z,1.10
2019-06-10T00:09:34.699Z,1.20
2019-06-10T00:14:38.789Z,0.97
2019-06-10T00:19:42.068Z,1.20
2019-06-10T00:24:45.352Z,1.20
2019-06-10T00:29:48.627Z,1.33
2019-06-10T00:34:52.156Z,0.70
2019-06-10T00:39:55.764Z,1.13
2019-06-10T00:45:02.676Z,1.20
2019-06-10T00:50:12.130Z,0.90
2019-06-10T00:55:13.944Z,1.10
2019-06-10T01:00:25.150Z,1.07
2019-06-10T01:05:22.721Z,1.27
2019-06-10T01:10:26.239Z,1.40
2019-06-10T01:15:31.162Z,0.97
2019-06-10T01:20:34.573Z,1.00
2019-06-10T01:25:38.168Z,1.50
2019-06-10T01:30:41.785Z,1.40
2019-06-10T01:35:45.079Z,1.07
2019-06-10T01:40:50.912Z,1.43
2019-06-10T01:45:53.942Z,1.43
2019-06-10T01:50:57.492Z,1.33
2019-06-10T01:56:01.187Z,1.13
2019-06-10T02:01:15.625Z,1.40
2019-06-10T02:06:20.410Z,1.20
2019-06-10T02:11:23.528Z,1.63
2019-06-10T02:16:27.543Z,1.50
2019-06-10T02:21:31.260Z,1.17
2019-06-10T02:26:34.769Z,1.73
2019-06-10T02:31:38.110Z,0.83
2019-06-10T02:36:44.611Z,1.40
2019-06-10T02:41:46.897Z,1.50
2019-06-10T02:46:54.193Z,1.60
2019-06-10T02:51:55.258Z,1.50
2019-06-10T02:56:58.529Z,1.37
2019-06-10T03:02:03.046Z,1.77
2019-06-10T03:07:06.744Z,1.73
2019-06-10T03:12:12.127Z,1.77
2019-06-10T03:17:19.905Z,1.47
2019-06-10T03:22:25.711Z,1.70
2019-06-10T03:27:28.889Z,1.30
2019-06-10T03:32:40.320Z,1.63
2019-06-10T03:37:37.184Z,1.40
2019-06-10T03:42:42.587Z,1.53
2019-06-10T03:47:45.723Z,1.80
2019-06-10T03:52:49.023Z,1.40
2019-06-10T03:57:52.730Z,1.60
2019-06-10T04:02:56.286Z,1.50
2019-06-10T04:08:02.006Z,1.60
2019-06-10T04:13:04.952Z,1.47
2019-06-10T04:18:08.469Z,1.60
2019-06-10T04:23:12.185Z,2.03
2019-06-10T04:28:15.533Z,1.90
2019-06-10T04:33:20.876Z,1.93
2019-06-10T04:38:26.039Z,1.40
2019-06-10T04:43:29.360Z,1.90
2019-06-10T04:48:33.037Z,1.70
2019-06-10T04:53:36.323Z,1.90
2019-06-10T04:58:39.884Z,1.93
2019-06-10T05:03:43.574Z,1.67
2019-06-10T05:08:47.120Z,2.17
2019-06-10T05:13:53.079Z,2.07
2019-06-10T05:18:55.760Z,2.43
2019-06-10T05:23:59.033Z,1.67
2019-06-10T05:29:03.222Z,2.13
2019-06-10T05:34:06.704Z,2.30
2019-06-10T05:39:12.027Z,1.83
2019-06-10T05:44:15.020Z,2.03
2019-06-10T05:49:18.560Z,1.90
2019-06-10T05:54:23.375Z,2.57
2019-06-10T05:59:27.617Z,2.60
2019-06-10T06:04:33.013Z,2.10
2019-06-10T06:09:37.792Z,2.30
2019-06-10T06:14:42.617Z,2.70
2019-06-10T06:19:46.005Z,2.10
2019-06-10T06:24:49.297Z,2.70
2019-06-10T06:29:53.303Z,2.53
2019-06-10T06:34:56.589Z,3.10
2019-06-10T06:39:59.878Z,2.67
2019-06-10T06:45:03.508Z,3.40
2019-06-10T06:50:07.765Z,2.90
2019-06-10T06:55:12.811Z,3.00
2019-06-10T07:00:38.683Z,2.80
2019-06-10T07:05:22.931Z,2.80
2019-06-10T07:10:26.550Z,3.37
2019-06-10T07:15:46.895Z,3.13
2019-06-10T07:20:49.163Z,3.23
2019-06-10T07:25:53.204Z,3.53
2019-06-10T07:30:56.685Z,3.03
2019-06-10T07:35:59.980Z,3.17
2019-06-10T07:41:03.566Z,3.30
2019-06-10T07:46:13.642Z,3.77
2019-06-10T07:51:17.017Z,3.70
2019-06-10T07:56:23.006Z,3.13
2019-06-10T08:01:25.427Z,3.10
2019-06-10T08:06:28.709Z,2.97
2019-06-10T08:11:33.260Z,2.70
2019-06-10T08:16:37.865Z,3.03
2019-06-10T08:21:44.110Z,2.30
2019-06-10T08:26:47.696Z,2.80
2019-06-10T08:31:53.178Z,2.97
2019-06-10T08:36:56.618Z,2.40
2019-06-10T08:41:59.957Z,2.33
2019-06-10T08:47:04.567Z,2.77
2019-06-10T08:52:08.464Z,2.23
2019-06-10T08:57:12.676Z,2.17
2019-06-10T09:02:16.395Z,2.67
2019-06-10T09:07:19.882Z,2.20
2019-06-10T09:12:30.316Z,2.00
2019-06-10T09:17:28.460Z,9.87
2019-06-10T09:22:32.710Z,6.83
2019-06-10T09:27:36.176Z,3.07
2019-06-10T09:32:39.816Z,4.50
2019-06-10T09:37:48.388Z,3.30
2019-06-10T09:42:52.357Z,4.67
2019-06-10T09:47:59.664Z,4.67
2019-06-10T09:52:59.657Z,2.63
2019-06-10T09:58:03.296Z,3.77
2019-06-10T10:03:06.587Z,4.90
2019-06-10T10:08:12.537Z,19.20
2019-06-10T10:13:16.210Z,3.77
2019-06-10T10:18:24.204Z,5.00
2019-06-10T10:23:27.908Z,2.77
2019-06-10T10:28:33.444Z,2.87
2019-06-10T10:33:36.941Z,2.63
2019-06-10T10:38:40.561Z,2.87
2019-06-10T10:43:47.070Z,2.20
2019-06-10T10:48:49.115Z,3.13
2019-06-10T10:54:17.936Z,2.30
2019-06-10T10:58:58.508Z,2.43
2019-06-10T11:04:03.067Z,2.57
2019-06-10T11:09:09.097Z,1.90
2019-06-10T11:14:14.942Z,2.50
2019-06-10T11:19:18.099Z,2.23
2019-06-10T11:24:33.614Z,2.27
2019-06-10T11:29:26.630Z,2.30
2019-06-10T11:34:29.934Z,2.17
2019-06-10T11:39:46.004Z,1.87
2019-06-10T11:44:51.336Z,2.30
2019-06-10T11:49:56.476Z,3.00
2019-06-10T11:55:11.950Z,2.23
2019-06-10T12:00:16.646Z,2.27
2019-06-10T12:05:14.828Z,2.33
2019-06-10T12:10:19.570Z,2.73
2019-06-10T12:15:22.912Z,2.50
2019-06-10T12:20:28.495Z,2.13
2019-06-10T12:25:38.842Z,2.50
2019-06-10T12:30:36.396Z,2.50
2019-06-10T12:35:42.151Z,1.90
2019-06-10T12:40:45.154Z,2.20
2019-06-10T12:45:48.905Z,1.93
2019-06-10T12:50:53.872Z,2.87
2019-06-10T12:55:58.863Z,2.10
2019-06-10T13:01:05.570Z,1.93
2019-06-10T13:06:09.673Z,2.40
2019-06-10T13:11:15.052Z,1.97
2019-06-10T13:16:21.061Z,1.57
2019-06-10T13:21:25.116Z,2.43
2019-06-10T13:26:28.407Z,2.33
2019-06-10T13:31:33.680Z,3.83
2019-06-10T13:36:37.149Z,2.07
2019-06-10T13:41:40.427Z,1.70
2019-06-10T13:46:43.942Z,2.20
2019-06-10T13:51:47.484Z,2.10
2019-06-10T13:57:04.992Z,2.00
2019-06-10T14:02:11.792Z,2.13
2019-06-10T14:07:17.482Z,2.33
2019-06-10T14:12:19.478Z,2.10
2019-06-10T14:17:24.440Z,2.00
2019-06-10T14:22:28.022Z,1.73
2019-06-10T14:27:31.305Z,1.90
2019-06-10T14:32:34.575Z,1.87
2019-06-10T14:37:39.249Z,1.83
2019-06-10T14:42:42.998Z,2.50
2019-06-10T14:47:46.279Z,2.37
2019-06-10T14:52:49.560Z,3.20
2019-06-10T14:57:53.287Z,3.03
2019-06-10T15:02:56.598Z,3.80
2019-06-10T15:08:00.122Z,3.17
2019-06-10T15:13:03.401Z,2.53
2019-06-10T15:18:07.638Z,3.37
2019-06-10T15:23:13.930Z,3.53
2019-06-10T15:28:17.594Z,4.03
2019-06-10T15:33:23.581Z,3.50
2019-06-10T15:38:26.283Z,3.27
2019-06-10T15:43:29.546Z,3.07
2019-06-10T15:48:33.072Z,3.77
2019-06-10T15:53:39.558Z,3.47
2019-06-10T15:58:46.967Z,3.40
2019-06-10T16:03:52.712Z,3.97
2019-06-10T16:08:58.247Z,3.40
2019-06-10T16:14:02.851Z,2.87
2019-06-10T16:19:06.300Z,4.50
2019-06-10T16:24:09.579Z,3.40
2019-06-10T16:29:12.862Z,3.60
2019-06-10T16:34:16.796Z,12.23
2019-06-10T16:39:21.720Z,3.17
2019-06-10T16:44:28.003Z,3.80
2019-06-10T16:49:32.731Z,2.90
2019-06-10T16:54:36.559Z,3.27
2019-06-10T16:59:40.089Z,3.73
2019-06-10T17:04:43.694Z,5.37
2019-06-10T17:09:46.943Z,4.57
2019-06-10T17:14:52.566Z,4.70
2019-06-10T17:19:55.325Z,6.07
2019-06-10T17:24:58.859Z,5.20
2019-06-10T17:30:02.928Z,6.47
2019-06-10T17:35:06.292Z,4.00
2019-06-10T17:40:09.644Z,2.30
2019-06-10T17:45:13.498Z,3.73
2019-06-10T17:50:16.851Z,1.83
2019-06-10T17:55:24.886Z,2.63
2019-06-10T18:00:27.782Z,2.37
2019-06-10T18:05:31.653Z,2.70
2019-06-10T18:10:36.142Z,2.53
2019-06-10T18:15:39.683Z,3.17
2019-06-10T18:20:43.958Z,3.03
2019-06-10T18:25:47.493Z,2.60
2019-06-10T18:30:53.149Z,2.53
2019-06-10T18:35:55.771Z,2.63
2019-06-10T18:40:59.348Z,2.63
2019-06-10T18:46:03.609Z,2.53
2019-06-10T18:51:07.106Z,2.93
2019-06-10T18:56:12.663Z,3.53
2019-06-10T19:01:15.753Z,2.70
2019-06-10T19:06:19.347Z,3.47
2019-06-10T19:11:23.646Z,2.80
2019-06-10T19:16:26.936Z,2.80
2019-06-10T19:21:30.595Z,2.57
2019-06-10T19:26:36.769Z,2.50
2019-06-10T19:31:40.917Z,2.80
2019-06-10T19:36:44.360Z,2.57
2019-06-10T19:41:48.162Z,2.63
2019-06-10T19:46:52.243Z,2.80
2019-06-10T19:51:55.577Z,3.07
2019-06-10T19:56:58.871Z,3.07
2019-06-10T20:02:03.379Z,3.20
2019-06-10T20:07:06.845Z,3.27
2019-06-10T20:12:12.380Z,3.43
2019-06-10T20:17:18.410Z,3.57
2019-06-10T20:22:22.833Z,3.00
2019-06-10T20:27:26.211Z,2.67
2019-06-10T20:32:29.741Z,2.90
2019-06-10T20:37:33.256Z,3.70
2019-06-10T20:42:36.549Z,5.60
2019-06-10T20:47:43.054Z,4.90
2019-06-10T20:52:46.349Z,2.80
2019-06-10T20:58:02.348Z,1.73
2019-06-10T21:02:56.625Z,2.47
2019-06-10T21:08:02.845Z,2.37
2019-06-10T21:13:12.777Z,2.50
2019-06-10T21:18:16.055Z,2.77
2019-06-10T21:23:19.341Z,3.13
2019-06-10T21:28:29.113Z,2.60
2019-06-10T21:33:35.805Z,3.03
2019-06-10T21:38:39.096Z,3.17
2019-06-10T21:43:49.454Z,3.27
2019-06-10T21:48:50.561Z,3.23
2019-06-10T21:54:12.543Z,3.93
2019-06-10T21:59:07.381Z,5.07
2019-06-10T22:04:14.086Z,4.33
2019-06-10T22:09:17.524Z,4.90
2019-06-10T22:14:22.413Z,4.73
2019-06-10T22:19:32.402Z,5.60
2019-06-10T22:24:39.090Z,6.13
2019-06-10T22:29:42.782Z,5.90
2019-06-10T22:34:46.073Z,6.70
2019-06-10T22:39:50.037Z,6.57
2019-06-10T22:44:57.431Z,7.57
2019-06-10T22:50:00.943Z,7.60
2019-06-10T22:55:12.988Z,8.13
2019-06-10T23:00:16.496Z,8.17
2019-06-10T23:05:23.224Z,8.40
2019-06-10T23:10:26.559Z,8.13
2019-06-10T23:15:32.191Z,8.63
2019-06-10T23:20:35.337Z,8.80
2019-06-10T23:25:38.866Z,8.17
2019-06-10T23:30:43.021Z,7.87
2019-06-10T23:35:47.701Z,8.37
2019-06-10T23:40:54.693Z,7.73
2019-06-10T23:45:57.186Z,8.00
2019-06-10T23:51:03.392Z,7.50
2019-06-10T23:56:07.902Z,7.00
